Etusivu
METAR-TAF:

METAR-TAF

Lentoasemat :

Teheran, Iran

Leveyspiiri: 35-41N, Pituuspiiri: 051-21E, korkeus merenpinnasta: 1204 m

Tämänhetkinen sää

Tämä raportti tehtiin 31 minuuttia sitten, kello 14.30 UTC
Tuuli 4 kn etelästä
Lämpötila 15°C
Kosteus 21%
Ilmanpaine 1022 hPa
Näkyvyys: 5000 m
usvaa

METAR: OIII 131430Z 17004KT 5000 HZ NSC 15/M07 Q1022 A3019

Aika: 18:31 (15:01 UTC)

Sääennuste

Tämä raportti tehtiin 3 tuntia ja 51 minuuttia sitten, kello 11.10 UTC
Ennuste voimassa 13. päivästä klo 12 UTC - 14. päivään klo 18 UTC
Tuuli 8 kn luoteesta
Näkyvyys: 4000 m
usvaa
Ajoittain
14. päivästä klo 03 UTC - 14. päivään klo 06 UTC
Näkyvyys: 3000 m
usvaa
Tulossa
14. päivästä klo 10 UTC - 14. päivään klo 12 UTC
Näkyvyys: 7000 m

TAF: OIII 131110Z 1312/1418 32008KT 4000 HZ NSC TEMPO 1403/1406 3000 HZ BECMG 1410/1412 7000

Säähavainnot ja -ennusteet yli 4000 lentoasemalta (METAR- ja TAF-raportit).

Käytössä olevat sääasemat on merkitty karttaan keltaisilla ja punaisilla pisteillä.

Aseta hiiri pisteen päälle nähdäksesi sääaseman nimen.

Klikkaa sitten nähdäksesi säähavainnot ja -ennusteet.

Kartan vaihtaminen: klikkaa mustalla rastilla varustettuja vihreitä pisteitä, niin voit zoomata sisään; viivalla varustettua vihreää pistettä, niin voit zoomata ulos tai vihreitä nuolia, niin pääset viereisille kartoille.


METAR-TAF: